Princeton's Hourly Summary for Saturday, March 18, 2017
Hour Temp
(f)
RH
(%)
Solar Rad.
(MJ/m2)
Rainfall
(in)
Wind
(mph)
3/18/2017 12:00 AM 69 70 0 0 3.82
3/18/2017 1:00 AM 68 72 0 0 4.72
3/18/2017 2:00 AM 68 73 0 0 5.58
3/18/2017 3:00 AM 67 76 0 0 4.87
3/18/2017 4:00 AM 65 80 0 0 4.41
3/18/2017 5:00 AM 63 85 0 0 1.63
3/18/2017 6:00 AM 63 88 0 0 2.92
3/18/2017 7:00 AM 63 90 0 0 3.95
3/18/2017 8:00 AM 63 91 0.01 0 4.44
3/18/2017 9:00 AM 63 91 0.14 0 4.63
3/18/2017 10:00 AM 64 88 0.32 0 4.12
3/18/2017 11:00 AM 66 82 0.61 0 2.74
3/18/2017 12:00 PM 68 77 0.96 0 1.46
3/18/2017 1:00 PM 69 75 1.22 0 2.19
3/18/2017 2:00 PM 70 71 1.65 0 2.75
3/18/2017 3:00 PM 72 68 1.67 0 3.16
3/18/2017 4:00 PM 75 62 2.19 0 3.86
3/18/2017 5:00 PM 77 60 1.96 0 4.96
3/18/2017 6:00 PM 77 60 1.16 0 5.57
3/18/2017 7:00 PM 76 61 0.31 0 4.13
3/18/2017 8:00 PM 72 66 0.05 0 2.71
3/18/2017 9:00 PM 69 76 0 0 2.75
3/18/2017 10:00 PM 67 80 0 0 1.87
3/18/2017 11:00 PM 66 83 0 0 2.44
Data Summary 68 76 12.25 0.00 3.57